Time;durP1;ratioP1;P1;durP2;ratioP2;P2;SDS_P1;SDS_P2;PMS_P1;PMS_P2;Temp;Humidity;BMP_temperature;BMP_pressure;BME280_temperature;BME280_humidity;BME280_pressure;Samples;Min_cycle;Max_cycle;Signal;HPM_P1;HPM_P2
2021/12/03 00:00:14;;;;;;;8.20;4.87;;;3.60;73.30;;;6.46;57.99;100641.94;4936848;29;20675;-49
2021/12/03 00:02:42;;;;;;;5.43;4.43;;;3.60;73.30;;;6.47;57.99;100644.38;4937442;29;20325;-48
2021/12/03 00:05:10;;;;;;;6.00;4.40;;;3.60;73.10;;;6.47;57.41;100639.16;4936740;29;20294;-46
2021/12/03 00:07:40;;;;;;;6.83;5.23;;;3.60;73.20;;;6.47;57.55;100636.53;4936447;29;20584;-47
2021/12/03 00:10:09;;;;;;;6.93;4.70;;;3.60;72.90;;;6.48;57.41;100640.81;4936154;29;20388;-48
2021/12/03 00:12:37;;;;;;;8.37;4.27;;;3.60;72.90;;;6.47;57.48;100631.31;4936419;29;20309;-48
2021/12/03 00:15:10;;;;;;;4.13;3.73;;;3.60;72.90;;;6.47;57.04;100622.66;4936648;29;20201;-49
2021/12/03 00:17:38;;;;;;;5.50;4.37;;;3.60;72.90;;;6.47;57.10;100633.94;4936588;29;20309;-47
2021/12/03 00:20:10;;;;;;;5.77;4.27;;;3.60;72.90;;;6.46;57.27;100634.91;4936241;29;20678;-48
2021/12/03 00:22:38;;;;;;;7.53;4.27;;;3.50;72.80;;;6.46;57.76;100642.75;4936414;29;20307;-48
2021/12/03 00:25:06;;;;;;;5.20;3.50;;;3.50;72.90;;;6.43;56.90;100637.81;4936093;29;20233;-46
2021/12/03 00:27:33;;;;;;;5.90;3.23;;;3.50;73.10;;;6.40;57.79;100635.50;4935463;29;20211;-46
2021/12/03 00:30:01;;;;;;;4.17;3.43;;;3.50;73.10;;;6.41;57.71;100639.78;4936189;29;20285;-47
2021/12/03 00:32:30;;;;;;;5.17;3.87;;;3.50;73.20;;;6.41;57.63;100629.31;4936989;29;20229;-45
2021/12/03 00:34:57;;;;;;;4.23;3.60;;;3.50;73.20;;;6.39;56.94;100638.28;4937614;29;20206;-48
2021/12/03 00:37:25;;;;;;;4.87;3.63;;;3.50;73.20;;;6.38;57.39;100634.84;4937494;29;20227;-48
2021/12/03 00:39:53;;;;;;;6.17;3.83;;;3.50;73.40;;;6.38;57.34;100640.06;4936509;29;20213;-45
2021/12/03 00:42:20;;;;;;;4.43;4.00;;;3.50;73.40;;;6.34;57.92;100645.75;4936285;29;20196;-47
2021/12/03 00:44:54;;;;;;;5.60;3.73;;;3.50;73.30;;;6.31;57.57;100649.47;4935818;29;20278;-47
2021/12/03 00:47:23;;;;;;;5.40;4.20;;;3.50;73.10;;;6.31;57.90;100657.31;4935924;29;20297;-46
2021/12/03 00:49:52;;;;;;;5.23;3.70;;;3.60;73.50;;;6.32;57.73;100651.13;4936021;29;20565;-47
2021/12/03 00:52:19;;;;;;;5.23;3.80;;;3.60;73.30;;;6.33;57.98;100654.53;4936385;29;20228;-47
2021/12/03 00:54:49;;;;;;;5.27;4.03;;;3.60;73.30;;;6.32;57.85;100640.69;4934869;29;20215;-47
2021/12/03 00:57:16;;;;;;;5.60;3.37;;;3.60;73.00;;;6.28;57.55;100654.16;4935336;29;20584;-47
2021/12/03 00:59:44;;;;;;;4.57;3.33;;;3.60;72.90;;;6.25;57.75;100650.09;4935987;29;20282;-47
2021/12/03 01:02:11;;;;;;;5.93;3.80;;;3.60;72.90;;;6.29;58.04;100661.03;4934967;29;20621;-46
2021/12/03 01:04:39;;;;;;;5.03;3.53;;;3.60;72.90;;;6.33;57.70;100678.06;4935473;29;21153;-47
2021/12/03 01:07:08;;;;;;;4.03;3.43;;;3.50;72.80;;;6.37;58.10;100685.44;4935547;29;20574;-47
2021/12/03 01:09:35;;;;;;;5.10;3.33;;;3.50;72.90;;;6.39;57.92;100687.94;4935794;29;20203;-46
2021/12/03 01:12:04;;;;;;;5.97;3.53;;;3.50;73.20;;;6.40;57.21;100676.50;4935398;29;20302;-47
2021/12/03 01:14:31;;;;;;;4.17;3.77;;;3.50;73.40;;;6.38;57.78;100679.28;4936306;29;20267;-48
2021/12/03 01:16:59;;;;;;;3.80;2.80;;;3.50;73.50;;;6.36;57.66;100686.44;4936216;29;20199;-47
2021/12/03 01:19:26;;;;;;;3.73;3.27;;;3.50;73.50;;;6.36;57.42;100689.06;4935959;29;20198;-46
2021/12/03 01:21:53;;;;;;;3.67;3.20;;;3.50;73.70;;;6.38;57.25;100676.66;4935938;29;20199;-47
2021/12/03 01:24:22;;;;;;;7.17;4.67;;;3.40;73.60;;;6.39;57.42;100673.09;4935657;29;20555;-46
2021/12/03 01:26:54;;;;;;;5.60;3.63;;;3.50;73.80;;;6.38;57.86;100676.66;4938110;29;20202;-47
2021/12/03 01:29:22;;;;;;;4.27;3.83;;;3.40;73.80;;;6.35;58.38;100676.94;4938283;29;20203;-47
2021/12/03 01:31:51;;;;;;;5.90;3.87;;;3.40;73.80;;;6.35;57.84;100671.72;4935600;29;20250;-48
2021/12/03 01:34:18;;;;;;;3.87;3.43;;;3.40;74.00;;;6.34;57.66;100680.53;4936282;29;20190;-47
2021/12/03 01:36:46;;;;;;;3.40;3.10;;;3.40;73.90;;;6.34;58.23;100675.31;4934354;29;20291;-46
2021/12/03 01:39:14;;;;;;;4.23;3.73;;;3.40;73.80;;;6.35;58.16;100676.94;4935295;29;20229;-47
2021/12/03 01:41:43;;;;;;;6.13;3.83;;;3.40;74.40;;;6.36;57.49;100672.56;4935004;29;20287;-47
2021/12/03 01:44:11;;;;;;;5.33;3.40;;;3.40;73.70;;;6.36;57.71;100662.91;4934616;29;20555;-47
2021/12/03 01:46:38;;;;;;;4.77;3.30;;;3.40;73.80;;;6.37;57.41;100671.59;4935026;29;20199;-47
2021/12/03 01:49:09;;;;;;;3.40;2.97;;;3.40;73.70;;;6.37;57.95;100672.38;4932785;29;20306;-48
2021/12/03 01:51:36;;;;;;;3.67;3.37;;;3.40;73.80;;;6.36;57.15;100676.00;4934730;29;20227;-47
2021/12/03 01:54:04;;;;;;;3.60;3.13;;;3.40;73.90;;;6.35;57.39;100671.72;4934470;29;20205;-48
2021/12/03 01:56:31;;;;;;;4.73;3.23;;;3.40;73.90;;;6.34;57.50;100664.88;4934765;29;20234;-46
2021/12/03 01:59:00;;;;;;;6.57;3.60;;;3.40;73.90;;;6.31;57.94;100670.38;4935029;29;20233;-46
2021/12/03 02:01:28;;;;;;;5.53;2.93;;;3.30;73.80;;;6.30;57.51;100673.16;4935419;29;20201;-48
2021/12/03 02:04:00;;;;;;;4.57;3.20;;;3.30;74.00;;;6.25;57.84;100665.78;4935566;29;20217;-46
2021/12/03 02:06:29;;;;;;;3.63;2.97;;;3.30;73.90;;;6.25;57.76;100673.59;4936290;29;20217;-46
2021/12/03 02:08:57;;;;;;;6.07;2.90;;;3.30;74.10;;;6.24;58.03;100665.91;4935439;29;20229;-46
2021/12/03 02:11:25;;;;;;;4.30;3.23;;;3.30;74.30;;;6.23;58.10;100675.53;4917430;29;20318;-50
2021/12/03 02:13:53;;;;;;;3.40;3.10;;;3.30;74.60;;;6.23;58.54;100677.34;4934558;29;20282;-46
2021/12/03 02:16:22;;;;;;;4.90;3.20;;;3.20;74.60;;;6.22;57.61;100681.72;4934052;29;20203;-46
2021/12/03 02:18:50;;;;;;;6.67;3.13;;;3.30;74.70;;;6.23;57.92;100679.94;4933783;29;20277;-48
2021/12/03 02:21:21;;;;;;;4.00;3.10;;;3.30;74.80;;;6.24;58.67;100678.97;4934546;29;20762;-47
2021/12/03 02:23:51;;;;;;;5.83;3.20;;;3.30;75.00;;;6.27;58.74;100683.91;4934722;29;20208;-47
2021/12/03 02:26:20;;;;;;;6.00;3.33;;;3.30;75.20;;;6.26;58.90;100677.84;4934170;29;20276;-49
2021/12/03 02:28:51;;;;;;;6.10;3.33;;;3.30;75.20;;;6.26;58.94;100685.69;4933610;29;20297;-46
2021/12/03 02:31:21;;;;;;;5.10;3.10;;;3.30;75.30;;;6.25;58.34;100678.84;4934070;29;20228;-47
2021/12/03 02:33:49;;;;;;;3.37;2.73;;;3.30;75.20;;;6.25;58.10;100686.66;4933024;29;20229;-47
2021/12/03 02:36:19;;;;;;;2.97;2.67;;;3.30;75.10;;;6.27;58.18;100679.50;4934355;29;20597;-47
2021/12/03 02:38:47;;;;;;;3.67;2.67;;;3.30;75.10;;;6.27;58.79;100687.34;4939421;29;20242;-47
2021/12/03 02:41:15;;;;;;;5.20;2.83;;;3.30;75.00;;;6.28;59.15;100686.34;4933019;29;20199;-48
2021/12/03 02:43:44;;;;;;;4.13;2.47;;;3.30;75.00;;;6.31;58.68;100695.69;4933715;29;20672;-47
2021/12/03 02:46:11;;;;;;;5.90;3.00;;;3.30;75.10;;;6.33;57.98;100694.56;4933700;29;20207;-48
2021/12/03 02:48:39;;;;;;;3.77;3.13;;;3.30;75.20;;;6.35;58.40;100692.63;4933516;29;20237;-48
2021/12/03 02:51:08;;;;;;;3.27;2.97;;;3.30;75.20;;;6.37;58.45;100690.69;4934129;29;20196;-47
2021/12/03 02:53:38;;;;;;;4.70;3.30;;;3.40;75.50;;;6.39;58.03;100694.00;4933821;29;20237;-49
2021/12/03 02:56:06;;;;;;;4.37;3.67;;;3.40;75.40;;;6.40;58.26;100695.63;4933877;29;20295;-47
2021/12/03 02:58:34;;;;;;;5.53;3.50;;;3.40;75.60;;;6.41;58.62;100681.59;4933556;29;20222;-47
2021/12/03 03:01:05;;;;;;;3.50;2.90;;;3.40;75.60;;;6.42;58.76;100687.66;4933169;29;20282;-47
2021/12/03 03:03:32;;;;;;;5.27;2.73;;;3.40;75.50;;;6.42;58.92;100691.06;4933895;29;20274;-47
2021/12/03 03:06:03;;;;;;;5.10;3.20;;;3.40;75.50;;;6.44;58.65;100694.34;4934056;29;20257;-48
2021/12/03 03:08:31;;;;;;;4.40;2.93;;;3.40;75.60;;;6.49;58.63;100699.94;4933378;29;20298;-47
2021/12/03 03:11:03;;;;;;;4.33;2.70;;;3.40;75.50;;;6.52;58.24;100694.44;4934526;29;20211;-47
2021/12/03 03:13:30;;;;;;;3.10;2.53;;;3.50;75.70;;;6.54;58.15;100695.09;4933578;29;20229;-46
2021/12/03 03:15:58;;;;;;;5.97;3.00;;;3.50;75.70;;;6.59;58.52;100689.41;4933338;29;20228;-47
2021/12/03 03:18:28;;;;;;;4.27;2.97;;;3.50;75.60;;;6.54;58.62;100692.47;4935467;29;20210;-48
2021/12/03 03:21:00;;;;;;;3.20;2.80;;;3.60;75.30;;;6.46;59.25;100695.03;4939737;29;20827;-47
2021/12/03 03:23:29;;;;;;;3.73;3.40;;;3.60;74.90;;;6.37;59.13;100689.88;4939134;29;20198;-47
2021/12/03 03:25:58;;;;;;;3.27;3.00;;;3.60;74.70;;;6.32;59.70;100685.09;4940420;29;20202;-47
2021/12/03 03:28:26;;;;;;;3.90;2.87;;;3.60;74.90;;;6.36;59.28;100683.81;4939024;29;20228;-49
2021/12/03 03:30:59;;;;;;;3.13;2.80;;;3.60;75.20;;;6.43;59.52;100690.09;4939764;29;20203;-47
2021/12/03 03:33:28;;;;;;;3.27;2.83;;;3.60;75.30;;;6.48;59.27;100685.25;4939598;29;20342;-46
2021/12/03 03:35:56;;;;;;;6.00;3.30;;;3.70;75.20;;;6.53;59.35;100685.63;4939686;29;20612;-47
2021/12/03 03:38:23;;;;;;;5.20;3.50;;;3.70;75.20;;;6.57;59.04;100676.50;4939562;29;20684;-47
2021/12/03 03:40:53;;;;;;;4.73;3.20;;;3.70;75.10;;;6.61;59.16;100677.84;4939055;29;20281;-47
2021/12/03 03:43:21;;;;;;;4.40;3.37;;;3.70;75.30;;;6.69;58.93;100670.06;4939568;29;20655;-47
2021/12/03 03:45:51;;;;;;;3.87;2.93;;;3.80;75.20;;;6.72;58.18;100672.41;4939839;29;20202;-47
2021/12/03 03:48:19;;;;;;;3.97;3.20;;;3.80;75.00;;;6.76;58.39;100675.50;4939643;29;20219;-47
2021/12/03 03:50:47;;;;;;;3.63;2.90;;;3.80;74.90;;;6.77;58.38;100667.50;4942851;29;20198;-48
2021/12/03 03:53:15;;;;;;;3.53;3.20;;;3.80;75.00;;;6.79;59.21;100665.59;4939638;29;20825;-47
2021/12/03 03:55:42;;;;;;;7.57;3.70;;;3.80;75.30;;;6.82;58.54;100664.47;4939577;29;20201;-48
2021/12/03 03:58:10;;;;;;;3.43;3.07;;;3.80;75.20;;;6.79;58.13;100665.59;4939211;29;20252;-48
2021/12/03 04:00:41;;;;;;;4.50;3.60;;;3.90;75.10;;;6.76;58.50;100671.13;4943644;29;20666;-46
2021/12/03 04:03:11;;;;;;;4.20;3.20;;;3.90;74.90;;;6.75;58.73;100659.00;4943778;29;20202;-47
2021/12/03 04:05:40;;;;;;;4.83;3.40;;;3.90;74.90;;;6.74;58.81;100667.84;4945954;29;20253;-47
2021/12/03 04:08:08;;;;;;;3.93;3.50;;;3.90;74.80;;;6.72;58.71;100667.16;4944902;29;20217;-47
2021/12/03 04:10:36;;;;;;;4.37;3.20;;;3.80;74.80;;;6.73;58.77;100663.56;4945362;29;20240;-47
2021/12/03 04:13:04;;;;;;;8.43;3.60;;;3.80;75.00;;;6.75;58.66;100653.75;4943862;29;20223;-47
2021/12/03 04:15:31;;;;;;;3.70;3.40;;;3.80;74.90;;;6.73;58.77;100655.72;4943621;29;20195;-48
2021/12/03 04:17:59;;;;;;;5.20;3.37;;;3.80;75.00;;;6.76;58.84;100657.22;4945591;29;20278;-46
2021/12/03 04:20:27;;;;;;;3.30;3.00;;;3.80;75.20;;;6.78;58.24;100652.63;4948084;29;20204;-47
2021/12/03 04:22:55;;;;;;;3.37;3.07;;;3.80;75.20;;;6.78;58.37;100648.25;4942682;29;20217;-47
2021/12/03 04:25:23;;;;;;;4.53;3.40;;;3.80;75.50;;;6.79;58.45;100644.66;4939057;29;20205;-47
2021/12/03 04:27:52;;;;;;;6.30;3.63;;;3.80;75.40;;;6.81;58.62;100645.31;4939032;29;20222;-48
2021/12/03 04:30:25;;;;;;;4.30;3.03;;;3.80;75.30;;;6.83;58.82;100640.75;4936572;29;20204;-47
2021/12/03 04:32:55;;;;;;;4.20;3.37;;;3.90;75.40;;;6.89;58.19;100643.75;4935658;29;20226;-48
2021/12/03 04:35:25;;;;;;;5.47;2.90;;;3.90;75.30;;;6.92;59.10;100643.44;4937497;29;20230;-50
2021/12/03 04:37:55;;;;;;;5.20;3.33;;;3.90;75.30;;;6.95;58.88;100636.09;4936499;29;20223;-49
2021/12/03 04:40:24;;;;;;;4.73;3.60;;;3.90;75.20;;;6.98;58.18;100634.97;4936112;29;20205;-47
2021/12/03 04:42:51;;;;;;;5.17;2.97;;;3.90;75.10;;;7.02;58.28;100626.66;4936199;29;20206;-47
2021/12/03 04:45:23;;;;;;;5.40;3.43;;;3.90;75.20;;;7.01;58.38;100622.41;4936243;29;20204;-49
2021/12/03 04:47:53;;;;;;;3.40;3.10;;;4.00;75.20;;;6.94;58.18;100623.19;4936247;29;20237;-49
2021/12/03 04:50:24;;;;;;;4.67;3.70;;;4.00;74.70;;;6.85;58.50;100618.88;4937321;29;20660;-47
2021/12/03 04:52:53;;;;;;;4.63;3.43;;;4.10;74.70;;;6.86;58.35;100620.50;4937231;29;20279;-47
2021/12/03 04:55:22;;;;;;;3.83;2.70;;;4.10;74.40;;;6.88;58.71;100615.94;4935899;29;20202;-47
2021/12/03 04:57:53;;;;;;;4.23;3.23;;;4.10;74.60;;;6.92;58.99;100622.53;4935852;29;20421;-48
2021/12/03 05:00:24;;;;;;;3.87;3.40;;;4.00;74.70;;;6.96;58.44;100621.22;4935596;29;20229;-47
2021/12/03 05:02:53;;;;;;;7.40;3.60;;;4.10;74.80;;;6.97;58.49;100626.28;4935429;29;20664;-47
2021/12/03 05:05:23;;;;;;;4.43;2.77;;;4.10;74.80;;;7.01;58.67;100626.81;4935434;29;20687;-47
2021/12/03 05:07:57;;;;;;;5.00;3.67;;;4.10;74.90;;;7.03;58.36;100632.72;4935189;29;20220;-47
2021/12/03 05:10:28;;;;;;;4.93;3.50;;;4.10;74.80;;;7.03;57.90;100637.94;4935584;29;20209;-48
2021/12/03 05:13:00;;;;;;;3.87;3.40;;;4.10;74.90;;;7.06;58.39;100627.97;4935418;29;20222;-47
2021/12/03 05:15:32;;;;;;;4.10;3.60;;;4.10;74.90;;;7.09;58.52;100632.91;4903035;29;20210;-47
2021/12/03 05:18:00;;;;;;;5.67;3.77;;;4.10;74.70;;;7.10;58.32;100639.78;4935394;29;20577;-47
2021/12/03 05:20:28;;;;;;;5.90;4.00;;;4.10;74.70;;;7.10;58.30;100636.34;4935018;29;20194;-47
2021/12/03 05:22:57;;;;;;;6.03;3.63;;;4.20;74.80;;;7.11;57.90;100640.59;4935281;29;20710;-49
2021/12/03 05:25:26;;;;;;;9.33;3.53;;;4.10;74.80;;;7.13;58.46;100641.28;4934942;29;20231;-47
2021/12/03 05:27:55;;;;;;;5.27;4.23;;;4.10;74.80;;;7.12;57.94;100639.63;4934772;29;20587;-46
2021/12/03 05:30:23;;;;;;;6.90;4.50;;;4.10;74.70;;;7.13;58.41;100646.53;4917530;29;20232;-46
2021/12/03 05:32:52;;;;;;;4.53;4.07;;;4.10;74.50;;;7.12;57.80;100645.69;4935194;29;20228;-47
2021/12/03 05:35:20;;;;;;;5.90;3.77;;;4.10;74.70;;;7.14;57.75;100642.91;4935761;29;20555;-50
2021/12/03 05:37:47;;;;;;;5.17;4.00;;;4.10;74.80;;;7.13;57.84;100644.69;4934942;29;20218;-47
2021/12/03 05:40:16;;;;;;;5.97;4.80;;;4.10;74.70;;;7.13;58.15;100643.91;4935299;29;20206;-48
2021/12/03 05:42:45;;;;;;;4.10;3.70;;;4.20;74.70;;;7.11;58.35;100646.66;4934138;29;20273;-48
2021/12/03 05:45:17;;;;;;;6.03;3.80;;;4.20;74.60;;;7.14;58.16;100638.50;4935028;29;20276;-47
2021/12/03 05:47:46;;;;;;;6.20;4.17;;;4.30;74.50;;;7.14;58.05;100640.28;4934827;29;20306;-50
2021/12/03 05:50:15;;;;;;;5.50;4.17;;;4.30;74.30;;;7.14;58.68;100642.91;4934364;29;20205;-48
2021/12/03 05:52:45;;;;;;;5.53;4.20;;;4.30;74.60;;;7.20;58.71;100645.72;4933685;29;20229;-49
2021/12/03 05:55:14;;;;;;;7.73;4.53;;;4.30;74.50;;;7.28;58.45;100650.19;4934757;29;20217;-49
2021/12/03 05:57:45;;;;;;;5.97;4.87;;;4.40;74.30;;;7.30;58.24;100643.00;4934383;29;20232;-48
2021/12/03 06:00:16;;;;;;;6.57;4.43;;;4.40;74.10;;;7.31;57.53;100644.66;4933925;29;20683;-48
2021/12/03 06:02:45;;;;;;;4.90;4.30;;;4.40;73.70;;;7.25;57.86;100647.91;4935172;29;20203;-47
2021/12/03 06:05:12;;;;;;;5.67;4.67;;;4.50;73.50;;;7.21;57.69;100643.94;4935400;29;20216;-48
2021/12/03 06:07:40;;;;;;;5.97;4.07;;;4.50;73.20;;;7.19;57.99;100644.09;4936144;29;20242;-47
2021/12/03 06:10:08;;;;;;;6.50;4.67;;;4.50;73.30;;;7.17;57.83;100638.19;4934294;29;20614;-48
2021/12/03 06:12:41;;;;;;;5.73;5.20;;;4.50;73.30;;;7.13;57.92;100647.31;4934391;29;20684;-47
2021/12/03 06:15:11;;;;;;;5.00;4.50;;;4.50;73.30;;;7.12;58.15;100650.09;4934154;29;20277;-47
2021/12/03 06:17:39;;;;;;;5.07;4.17;;;4.50;73.30;;;7.15;57.89;100639.31;4933160;29;20718;-48
2021/12/03 06:20:09;;;;;;;5.50;5.00;;;4.40;73.40;;;7.19;57.50;100640.66;4934456;29;20199;-47
2021/12/03 06:22:37;;;;;;;6.43;5.53;;;4.40;73.30;;;7.16;57.67;100639.16;4932423;29;20240;-49
2021/12/03 06:25:08;;;;;;;9.43;6.40;;;4.40;73.30;;;7.12;58.13;100635.22;4934022;29;20207;-50
2021/12/03 06:27:37;;;;;;;7.23;5.90;;;4.40;73.50;;;7.14;57.71;100635.06;4933858;29;20222;-48
2021/12/03 06:30:11;;;;;;;7.13;6.47;;;4.40;73.60;;;7.12;57.46;100634.41;4934106;29;20331;-48
2021/12/03 06:32:40;;;;;;;11.33;6.50;;;4.30;73.20;;;7.07;57.97;100626.19;4933771;29;21451;-48
2021/12/03 06:35:11;;;;;;;9.27;6.33;;;4.30;73.40;;;7.06;58.50;100629.81;4933918;29;20204;-48
2021/12/03 06:37:40;;;;;;;7.53;6.83;;;4.30;73.60;;;7.02;58.29;100636.28;4934101;29;20642;-47
2021/12/03 06:40:12;;;;;;;7.53;6.83;;;4.30;73.30;;;6.99;57.83;100634.00;4933534;29;20203;-48
2021/12/03 06:42:39;;;;;;;7.93;7.13;;;4.30;73.10;;;6.92;57.73;100636.38;4933513;29;20224;-50
2021/12/03 06:45:11;;;;;;;10.30;7.67;;;4.30;73.00;;;6.82;57.83;100639.09;4933966;29;20201;-47
2021/12/03 06:47:39;;;;;;;12.30;8.10;;;4.30;73.00;;;6.78;57.96;100637.78;4932727;29;20221;-48
2021/12/03 06:50:09;;;;;;;10.67;8.23;;;4.20;72.90;;;6.70;58.26;100635.09;4933513;29;20202;-47
2021/12/03 06:52:40;;;;;;;12.17;9.13;;;4.20;73.10;;;6.63;59.02;100634.06;4936516;29;20261;-47
2021/12/03 06:55:11;;;;;;;11.70;10.30;;;4.10;73.30;;;6.55;58.52;100636.63;4933874;29;20204;-47
2021/12/03 06:57:41;;;;;;;12.33;8.50;;;4.10;73.40;;;6.49;59.12;100631.97;4933083;29;20306;-49
2021/12/03 07:00:12;;;;;;;11.13;9.07;;;4.00;73.40;;;6.47;59.24;100627.88;4935081;29;20532;-49
2021/12/03 07:02:40;;;;;;;15.13;10.77;;;4.00;73.70;;;6.44;59.31;100629.00;4935951;29;20210;-47
2021/12/03 07:05:09;;;;;;;11.80;10.33;;;3.90;73.80;;;6.41;59.12;100633.72;4933676;29;20207;-49
2021/12/03 07:07:36;;;;;;;13.20;10.47;;;3.90;73.90;;;6.39;59.76;100639.13;4932752;29;20305;-48
2021/12/03 07:10:06;;;;;;;12.30;10.87;;;3.90;74.20;;;6.37;60.01;100632.38;4933528;29;20230;-49
2021/12/03 07:12:34;;;;;;;12.67;10.23;;;3.90;74.40;;;6.39;59.83;100628.66;4934246;29;20599;-48
2021/12/03 07:15:01;;;;;;;12.40;11.03;;;3.80;74.50;;;6.43;59.84;100644.84;4932989;29;20261;-50
2021/12/03 07:17:32;;;;;;;13.57;11.70;;;3.80;74.60;;;6.45;59.69;100635.88;4933464;29;20223;-49
2021/12/03 07:20:06;;;;;;;14.13;11.70;;;3.80;74.80;;;6.43;59.66;100637.81;4932872;29;20205;-49
2021/12/03 07:22:35;;;;;;;14.17;12.40;;;3.80;74.70;;;6.44;60.18;100634.22;4932161;29;20587;-49
2021/12/03 07:25:04;;;;;;;13.00;11.50;;;3.80;74.80;;;6.45;59.39;100635.88;4929541;29;20250;-49
2021/12/03 07:27:32;;;;;;;13.00;10.83;;;3.80;74.80;;;6.45;59.85;100645.50;4916196;29;20252;-46
2021/12/03 07:29:59;;;;;;;12.77;11.43;;;3.80;74.70;;;6.42;59.38;100636.16;4930643;29;20213;-48
2021/12/03 07:32:28;;;;;;;14.17;12.30;;;3.80;74.60;;;6.40;59.75;100637.28;4930949;29;20210;-48
2021/12/03 07:34:57;;;;;;;17.17;12.40;;;3.80;74.60;;;6.36;59.12;100636.78;4930636;29;20254;-48
2021/12/03 07:37:24;;;;;;;17.30;13.07;;;3.80;74.50;;;6.35;59.86;100639.53;4930832;29;20213;-46
2021/12/03 07:39:52;;;;;;;15.73;13.10;;;3.70;74.60;;;6.35;59.42;100639.53;4933003;29;20196;-49
2021/12/03 07:42:19;;;;;;;15.17;12.07;;;3.70;74.80;;;6.36;59.35;100642.00;4936645;29;20217;-49
2021/12/03 07:44:47;;;;;;;14.73;13.07;;;3.70;74.80;;;6.36;59.42;100634.16;4936293;29;20215;-47
2021/12/03 07:47:14;;;;;;;17.00;14.57;;;3.70;74.90;;;6.33;59.43;100629.25;4931666;29;20291;-45
2021/12/03 07:49:42;;;;;;;15.50;13.13;;;3.70;75.00;;;6.28;60.06;100628.88;4930617;29;20226;-48
2021/12/03 07:52:12;;;;;;;15.93;13.20;;;3.70;75.00;;;6.30;60.02;100639.97;4932407;29;20220;-48
2021/12/03 07:54:39;;;;;;;18.63;14.93;;;3.70;75.10;;;6.35;59.95;100640.34;4930993;29;20246;-46
2021/12/03 07:57:07;;;;;;;18.30;15.30;;;3.70;75.40;;;6.41;60.19;100639.78;4931459;29;20257;-48
2021/12/03 07:59:34;;;;;;;17.57;13.73;;;3.70;75.70;;;6.49;60.37;100644.25;4933165;29;20304;-47
2021/12/03 08:02:02;;;;;;;17.40;14.73;;;3.70;75.90;;;6.55;59.66;100647.09;4929974;29;21454;-48
2021/12/03 08:04:30;;;;;;;18.37;13.77;;;3.70;75.80;;;6.62;60.06;100637.66;4933474;29;20204;-48
2021/12/03 08:07:00;;;;;;;16.70;13.10;;;3.80;75.90;;;6.68;59.40;100644.88;4935321;29;20235;-47
2021/12/03 08:09:29;;;;;;;17.80;14.23;;;3.80;76.00;;;6.80;59.60;100651.50;4935348;29;20292;-48
2021/12/03 08:11:57;;;;;;;17.33;12.87;;;3.90;76.40;;;6.93;59.46;100642.44;4933762;29;20733;-49
2021/12/03 08:14:24;;;;;;;17.87;15.13;;;3.90;76.20;;;7.00;59.11;100648.72;4934944;29;20249;-49
2021/12/03 08:16:51;;;;;;;17.40;14.50;;;4.00;76.10;;;6.99;58.98;100654.94;4936658;29;20607;-46
2021/12/03 08:19:19;;;;;;;18.37;14.80;;;4.10;75.80;;;6.99;59.20;100653.13;4934771;29;20218;-46
2021/12/03 08:21:46;;;;;;;18.93;13.63;;;4.10;75.60;;;6.98;59.32;100654.09;4935190;29;20189;-45
2021/12/03 08:24:14;;;;;;;16.93;12.63;;;4.20;75.50;;;7.06;59.48;100651.53;4922445;29;20236;-47
2021/12/03 08:26:43;;;;;;;18.53;14.70;;;4.30;75.60;;;7.08;59.14;100648.78;4937734;29;20623;-47
2021/12/03 08:29:10;;;;;;;20.53;16.17;;;4.30;75.50;;;7.15;59.34;100653.25;4935044;29;20316;-47
2021/12/03 08:31:39;;;;;;;21.67;15.13;;;4.40;75.50;;;7.24;59.34;100654.94;4935595;29;20194;-46
2021/12/03 08:34:07;;;;;;;15.50;12.60;;;4.40;75.60;;;7.36;59.01;100658.09;4936544;29;20701;-46
2021/12/03 08:36:35;;;;;;;19.43;15.63;;;4.50;75.70;;;7.47;58.62;100655.19;4935676;29;20347;-49
2021/12/03 08:39:04;;;;;;;22.03;16.20;;;4.60;76.30;;;7.48;58.75;100659.47;4935414;29;20228;-47
2021/12/03 08:41:33;;;;;;;20.80;15.73;;;4.70;75.10;;;7.54;59.06;100656.22;4936461;29;21415;-48
2021/12/03 08:44:04;;;;;;;18.10;14.80;;;4.80;75.80;;;7.57;58.55;100653.28;4918459;29;20200;-48
2021/12/03 08:46:35;;;;;;;23.13;16.97;;;4.80;74.70;;;7.67;58.59;100656.59;4936855;29;20660;-47
2021/12/03 08:49:49;;;;;;;22.00;15.70;;;4.80;74.40;;;7.75;58.45;100654.00;4934374;29;20231;-48
2021/12/03 08:54:53;;;;;;;25.23;16.70;;;4.90;74.00;;;7.67;58.19;100633.03;4934405;29;20644;-46
2021/12/03 08:57:24;;;;;;;17.83;14.60;;;5.00;73.70;;;7.69;58.48;100632.88;4917867;29;20223;-49
2021/12/03 08:59:55;;;;;;;19.23;15.70;;;5.00;73.70;;;7.74;58.09;100636.66;4934297;29;20201;-49
2021/12/03 09:02:23;;;;;;;19.30;15.50;;;5.10;73.80;;;7.78;58.06;100639.75;4934496;29;20204;-48
2021/12/03 09:04:51;;;;;;;19.37;15.10;;;5.10;73.70;;;7.81;58.08;100627.19;4935114;29;20210;-48
2021/12/03 09:07:19;;;;;;;24.97;16.50;;;5.10;73.40;;;7.86;57.89;100635.38;4932979;29;20233;-48
2021/12/03 09:09:46;;;;;;;21.90;16.37;;;5.10;73.70;;;7.95;58.10;100636.22;4932572;29;20241;-48
2021/12/03 09:12:14;;;;;;;19.43;14.73;;;5.10;73.70;;;8.03;57.66;100631.81;4930674;29;20230;-46
2021/12/03 09:15:04;;;;;;;20.93;14.43;;;5.10;73.80;;;8.09;57.34;100636.41;4932648;29;20227;-49
2021/12/03 09:25:05;;;;;;;28.23;16.33;;;5.20;73.30;;;8.11;57.28;100642.31;4934392;29;20507;-47
2021/12/03 09:27:33;;;;;;;22.07;17.20;;;5.20;73.30;;;8.07;57.32;100638.38;4933776;29;20223;-45
2021/12/03 09:30:03;;;;;;;21.07;15.87;;;5.30;73.20;;;8.11;57.26;100629.22;4933763;29;20570;-49
2021/12/03 09:32:32;;;;;;;24.80;17.27;;;5.30;73.20;;;8.14;57.18;100628.91;4934475;29;20203;-49
2021/12/03 09:35:02;;;;;;;20.93;16.73;;;5.30;73.30;;;8.24;57.31;100622.69;4935740;29;20230;-48
2021/12/03 09:37:29;;;;;;;19.93;14.77;;;5.30;73.40;;;8.30;57.06;100632.53;4933086;29;20285;-48
2021/12/03 09:40:03;;;;;;;25.37;16.13;;;5.40;73.40;;;8.37;57.04;100617.81;4935238;29;20234;-48
2021/12/03 09:42:32;;;;;;;24.83;17.13;;;5.40;73.30;;;8.37;56.69;100628.31;4935496;29;20201;-48
2021/12/03 09:45:01;;;;;;;25.00;17.70;;;5.40;73.10;;;8.27;56.83;100617.16;4917410;29;20202;-46
2021/12/03 09:47:28;;;;;;;24.67;16.70;;;5.40;72.70;;;8.24;57.12;100607.78;4931755;29;20325;-47
2021/12/03 09:49:59;;;;;;;27.50;18.53;;;5.40;72.70;;;8.20;57.13;100606.47;4934494;29;20259;-48
2021/12/03 09:52:32;;;;;;;26.93;17.07;;;5.40;72.80;;;8.21;57.08;100602.84;4932764;29;20203;-48
2021/12/03 09:55:09;;;;;;;26.17;17.13;;;5.50;72.90;;;8.24;57.37;100606.94;4933728;29;20787;-47
2021/12/03 09:58:01;;;;;;;25.97;17.77;;;5.50;73.00;;;8.21;57.37;100597.59;4934238;29;20756;-47
2021/12/03 10:03:48;;;;;;;26.87;17.20;;;5.50;72.90;;;8.07;57.43;100591.22;4951022;29;20217;-46
2021/12/03 10:10:01;;;;;;;28.63;16.63;;;5.50;72.80;;;8.06;57.82;100589.56;4933857;29;20218;-50
2021/12/03 10:15:05;;;;;;;35.70;20.03;;;5.40;73.10;;;8.00;57.88;100579.72;4933891;29;20216;-49
2021/12/03 10:17:41;;;;;;;27.10;17.97;;;5.40;73.00;;;7.90;58.26;100583.47;4933431;29;20222;-48
2021/12/03 10:41:18;;;;;;;34.33;18.67;;;5.30;74.60;;;7.88;59.12;100565.31;4931660;29;20616;-49
2021/12/03 10:54:17;;;;;;;31.40;19.30;;;5.40;74.70;;;7.96;59.14;100533.84;4933805;29;20195;-47
2021/12/03 12:29:20;;;;;;;24.00;15.23;;;6.00;70.10;;;8.57;55.08;100398.78;4938348;29;20215;-48
2021/12/03 13:27:35;;;;;;;19.83;10.20;;;6.30;70.00;;;8.72;55.95;100302.66;4937562;29;20241;-48
2021/12/03 13:39:19;;;;;;;15.30;8.30;;;6.10;71.20;;;8.35;57.56;100278.91;4940705;29;20209;-47
2021/12/03 14:37:16;;;;;;;12.87;5.60;;;5.60;76.10;;;7.97;61.33;100207.97;4938608;29;20330;-47
2021/12/03 14:42:45;;;;;;;9.37;5.47;;;5.60;76.60;;;8.14;60.79;100198.22;4938152;29;20226;-48
2021/12/03 14:56:21;;;;;;;11.07;5.50;;;5.70;77.00;;;7.87;62.28;100175.09;4938522;29;20226;-47
2021/12/03 14:59:10;;;;;;;12.33;7.33;;;5.70;77.10;;;7.87;61.90;100173.31;4934522;29;20265;-49
2021/12/03 15:09:42;;;;;;;11.03;6.63;;;5.60;77.60;;;7.84;62.79;100151.88;4938229;29;20217;-47
2021/12/03 15:25:06;;;;;;;9.23;5.37;;;5.60;78.40;;;7.82;62.97;100151.25;4921332;29;20206;-48
2021/12/03 16:03:35;;;;;;;11.37;6.20;;;5.70;79.60;;;7.94;63.76;100108.75;4940493;29;20204;-47
2021/12/03 16:06:28;;;;;;;11.93;6.50;;;5.70;79.60;;;7.87;64.08;100109.59;4936106;29;20190;-47